Time;durP1;ratioP1;P1;durP2;ratioP2;P2;SDS_P1;SDS_P2;PMS_P1;PMS_P2;Temp;Humidity;BMP_temperature;BMP_pressure;BME280_temperature;BME280_humidity;BME280_pressure;Samples;Min_cycle;Max_cycle;Signal;HPM_P1;HPM_P2
2021/08/12 00:02:04;;;;;;;;;;;19.20;57.10;;;;;;5063182;28;20316;-84
2021/08/12 00:04:31;;;;;;;;;;;19.10;57.10;;;;;;5062588;28;19913;-84
2021/08/12 00:06:56;;;;;;;;;;;19.10;57.20;;;;;;5051754;28;19955;-84
2021/08/12 00:09:32;;;;;;;;;;;19.10;57.20;;;;;;5062852;28;19916;-84
2021/08/12 00:12:07;;;;;;;;;;;;;;;;;;;;;
2021/08/12 00:14:43;;;;;;;;;;;19.00;57.40;;;;;;5063648;28;20003;-84
2021/08/12 00:17:08;;;;;;;;;;;19.00;57.50;;;;;;5061760;28;19917;-84
2021/08/12 00:19:34;;;;;;;;;;;19.00;57.60;;;;;;5062951;28;19909;-84
2021/08/12 00:22:07;;;;;;;;;;;18.90;57.60;;;;;;5072641;28;19980;-84
2021/08/12 00:24:50;;;;;;;;;;;18.90;57.80;;;;;;5057554;28;19920;-84
2021/08/12 00:27:15;;;;;;;;;;;18.90;57.90;;;;;;5068322;28;19913;-84
2021/08/12 00:29:43;;;;;;;;;;;18.90;57.90;;;;;;5062484;28;19934;-84
2021/08/12 00:32:08;;;;;;;;;;;18.90;58.00;;;;;;5059714;28;19917;-84
2021/08/12 00:34:34;;;;;;;;;;;18.80;58.00;;;;;;5061823;28;19932;-84
2021/08/12 00:37:01;;;;;;;;;;;18.80;58.10;;;;;;5061828;28;19913;-84
2021/08/12 00:39:27;;;;;;;;;;;18.70;58.20;;;;;;5060123;28;20422;-84
2021/08/12 00:41:53;;;;;;;;;;;18.70;58.30;;;;;;5060850;28;19976;-84
2021/08/12 00:44:18;;;;;;;;;;;18.70;58.40;;;;;;5061194;28;20296;-84
2021/08/12 00:46:44;;;;;;;;;;;18.60;58.40;;;;;;5059125;28;19956;-83
2021/08/12 00:49:12;;;;;;;;;;;18.60;58.50;;;;;;5058038;28;19936;-84
2021/08/12 00:51:38;;;;;;;;;;;18.60;58.60;;;;;;5056840;28;19919;-83
2021/08/12 00:54:04;;;;;;;;;;;18.60;58.70;;;;;;5057392;28;19920;-83
2021/08/12 00:56:30;;;;;;;;;;;18.50;58.80;;;;;;5046660;28;19917;-83
2021/08/12 00:58:55;;;;;;;;;;;18.50;58.80;;;;;;5056177;28;19913;-83
2021/08/12 01:01:20;;;;;;;;;;;18.40;58.80;;;;;;5055247;28;19917;-84
2021/08/12 01:03:46;;;;;;;;;;;18.40;59.50;;;;;;5057459;28;19912;-83
2021/08/12 01:06:13;;;;;;;;;;;18.40;59.00;;;;;;5057564;28;19912;-83
2021/08/12 01:08:54;;;;;;;;;;;18.30;59.10;;;;;;5056245;28;19912;-83
2021/08/12 01:11:28;;;;;;;;;;;18.30;59.30;;;;;;5060437;28;19920;-84
2021/08/12 01:14:29;;;;;;;;;;;18.30;59.40;;;;;;5050326;28;19931;-83
2021/08/12 01:17:15;;;;;;;;;;;18.30;59.60;;;;;;5032460;28;20001;-84
2021/08/12 01:20:00;;;;;;;;;;;18.30;59.70;;;;;;5046854;28;19956;-83
2021/08/12 01:22:26;;;;;;;;;;;18.20;59.70;;;;;;5055289;28;19921;-84
2021/08/12 01:24:56;;;;;;;;;;;18.20;59.90;;;;;;5060552;28;19913;-84
2021/08/12 01:27:38;;;;;;;;;;;18.20;60.00;;;;;;5061595;28;19913;-84
2021/08/12 01:30:12;;;;;;;;;;;18.20;60.00;;;;;;5048640;28;19928;-84
2021/08/12 01:32:59;;;;;;;;;;;18.20;60.20;;;;;;5060524;28;20007;-84
2021/08/12 01:35:25;;;;;;;;;;;18.20;60.40;;;;;;5060385;28;19948;-85
2021/08/12 01:38:02;;;;;;;;;;;18.20;60.50;;;;;;5059404;28;19966;-84
2021/08/12 01:40:30;;;;;;;;;;;18.20;60.70;;;;;;5061873;28;19919;-84
2021/08/12 01:42:56;;;;;;;;;;;18.10;60.70;;;;;;5058165;28;19917;-84
2021/08/12 01:45:25;;;;;;;;;;;18.10;60.90;;;;;;5061271;28;19962;-84
2021/08/12 01:47:56;;;;;;;;;;;18.20;61.20;;;;;;5049503;28;19919;-84
2021/08/12 01:50:24;;;;;;;;;;;18.20;61.40;;;;;;5077163;28;19913;-84
2021/08/12 01:52:53;;;;;;;;;;;18.20;61.60;;;;;;5059517;28;19939;-84
2021/08/12 01:55:22;;;;;;;;;;;18.10;61.70;;;;;;5060190;28;19967;-84
2021/08/12 01:57:50;;;;;;;;;;;18.10;61.90;;;;;;5060902;28;19908;-86
2021/08/12 02:00:16;;;;;;;;;;;18.20;62.20;;;;;;5060488;28;20320;-84
2021/08/12 02:02:54;;;;;;;;;;;;;;;;;;;;;
2021/08/12 02:05:23;;;;;;;;;;;18.20;62.60;;;;;;5050298;28;19983;-84
2021/08/12 02:07:54;;;;;;;;;;;18.10;62.60;;;;;;5059778;28;19940;-84
2021/08/12 02:10:22;;;;;;;;;;;18.10;63.00;;;;;;5058969;28;19913;-84
2021/08/12 02:12:57;;;;;;;;;;;18.20;63.40;;;;;;5061375;28;19912;-83
2021/08/12 02:15:23;;;;;;;;;;;18.10;63.40;;;;;;5061025;28;19959;-84
2021/08/12 02:17:48;;;;;;;;;;;18.10;63.70;;;;;;5056595;28;19917;-84
2021/08/12 02:20:16;;;;;;;;;;;18.10;63.90;;;;;;5060528;28;19952;-84
2021/08/12 02:22:47;;;;;;;;;;;18.10;64.20;;;;;;5056585;28;20304;-83
2021/08/12 02:25:18;;;;;;;;;;;18.10;64.40;;;;;;5058319;28;19916;-84
2021/08/12 02:27:48;;;;;;;;;;;18.00;64.60;;;;;;5059884;28;19974;-84
2021/08/12 02:30:14;;;;;;;;;;;18.00;65.10;;;;;;5059615;28;19913;-85
2021/08/12 02:32:40;;;;;;;;;;;18.00;66.20;;;;;;5058200;28;19920;-84
2021/08/12 02:35:08;;;;;;;;;;;17.80;66.90;;;;;;5058796;28;19913;-83
2021/08/12 02:37:34;;;;;;;;;;;17.70;68.10;;;;;;5059629;28;19921;-84
2021/08/12 02:40:01;;;;;;;;;;;17.60;68.90;;;;;;5057482;28;19944;-84
2021/08/12 02:42:26;;;;;;;;;;;17.60;69.60;;;;;;5059460;28;19925;-83
2021/08/12 02:44:52;;;;;;;;;;;17.60;70.20;;;;;;5059324;28;20270;-84
2021/08/12 02:47:19;;;;;;;;;;;17.60;70.60;;;;;;5058425;28;20391;-84
2021/08/12 02:49:53;;;;;;;;;;;17.60;71.10;;;;;;5059236;28;19912;-84
2021/08/12 02:52:19;;;;;;;;;;;17.60;71.50;;;;;;5064698;28;19916;-83
2021/08/12 02:54:46;;;;;;;;;;;17.60;71.90;;;;;;5063743;28;19979;-83
2021/08/12 02:57:12;;;;;;;;;;;17.50;72.10;;;;;;5045802;28;19917;-83
2021/08/12 02:59:38;;;;;;;;;;;17.50;72.70;;;;;;5055137;28;19913;-83
2021/08/12 03:02:04;;;;;;;;;;;17.50;73.20;;;;;;5052900;28;19959;-83
2021/08/12 03:04:30;;;;;;;;;;;17.50;73.70;;;;;;5055310;28;20304;-83
2021/08/12 03:06:56;;;;;;;;;;;17.50;74.20;;;;;;5053788;28;19920;-84
2021/08/12 03:09:22;;;;;;;;;;;17.50;74.80;;;;;;5056916;28;19909;-83
2021/08/12 03:11:48;;;;;;;;;;;17.50;75.40;;;;;;5059921;28;19913;-84
2021/08/12 03:14:14;;;;;;;;;;;17.40;75.90;;;;;;5055739;28;19923;-84
2021/08/12 03:16:40;;;;;;;;;;;17.40;76.60;;;;;;5055435;28;19921;-83
2021/08/12 03:19:05;;;;;;;;;;;17.30;77.30;;;;;;5055535;28;20109;-83
2021/08/12 03:21:31;;;;;;;;;;;17.30;78.00;;;;;;5056659;28;19924;-84
2021/08/12 03:24:01;;;;;;;;;;;17.30;78.80;;;;;;5049690;28;20339;-83
2021/08/12 03:26:27;;;;;;;;;;;17.30;79.60;;;;;;5070233;28;19917;-83
2021/08/12 03:28:52;;;;;;;;;;;17.20;80.20;;;;;;5057951;28;19912;-84
2021/08/12 03:31:18;;;;;;;;;;;17.20;80.80;;;;;;5055150;28;19935;-83
2021/08/12 03:33:43;;;;;;;;;;;17.20;81.60;;;;;;5058648;28;19920;-83
2021/08/12 03:36:09;;;;;;;;;;;17.20;82.30;;;;;;5058679;28;20068;-84
2021/08/12 03:38:35;;;;;;;;;;;17.20;83.00;;;;;;5058414;28;19948;-84
2021/08/12 03:41:00;;;;;;;;;;;17.10;83.60;;;;;;5058998;28;19923;-84
2021/08/12 03:43:28;;;;;;;;;;;17.10;84.20;;;;;;5058585;28;19966;-83
2021/08/12 03:45:54;;;;;;;;;;;17.20;84.90;;;;;;5072121;28;19972;-84
2021/08/12 03:48:19;;;;;;;;;;;17.20;85.50;;;;;;5056952;28;19951;-84
2021/08/12 03:50:45;;;;;;;;;;;17.20;86.20;;;;;;5059279;28;19913;-84
2021/08/12 03:53:12;;;;;;;;;;;17.20;87.00;;;;;;5056717;28;19919;-84
2021/08/12 03:55:38;;;;;;;;;;;17.10;87.60;;;;;;5058741;28;19924;-83
2021/08/12 03:58:03;;;;;;;;;;;17.20;88.40;;;;;;5055549;28;19913;-84
2021/08/12 04:00:31;;;;;;;;;;;17.20;89.10;;;;;;5057865;28;19913;-83
2021/08/12 04:02:57;;;;;;;;;;;17.20;89.80;;;;;;5055930;28;19976;-84
2021/08/12 04:05:22;;;;;;;;;;;17.20;90.20;;;;;;5050194;28;19959;-84
2021/08/12 04:07:48;;;;;;;;;;;17.20;90.60;;;;;;5055797;28;19962;-83
2021/08/12 04:10:13;;;;;;;;;;;17.10;90.90;;;;;;5056382;28;19940;-83
2021/08/12 04:12:44;;;;;;;;;;;17.10;91.20;;;;;;5056361;28;19919;-83
2021/08/12 04:15:12;;;;;;;;;;;17.10;91.60;;;;;;5054695;28;19927;-83
2021/08/12 04:17:37;;;;;;;;;;;17.10;91.90;;;;;;5056293;28;19920;-83
2021/08/12 04:20:05;;;;;;;;;;;17.10;92.30;;;;;;5055067;28;19916;-83
2021/08/12 04:22:33;;;;;;;;;;;17.10;92.70;;;;;;5053965;28;19917;-84
2021/08/12 04:24:58;;;;;;;;;;;17.10;93.10;;;;;;5053873;28;19966;-83
2021/08/12 04:27:26;;;;;;;;;;;17.10;93.40;;;;;;5053319;28;19913;-83
2021/08/12 04:29:52;;;;;;;;;;;17.10;93.80;;;;;;5054130;28;20440;-83
2021/08/12 04:32:17;;;;;;;;;;;17.10;94.20;;;;;;5053276;28;20002;-83
2021/08/12 04:34:45;;;;;;;;;;;17.10;94.60;;;;;;5052495;28;19917;-83
2021/08/12 04:37:11;;;;;;;;;;;17.10;95.00;;;;;;5055317;28;19936;-83
2021/08/12 04:39:39;;;;;;;;;;;17.10;95.30;;;;;;5054235;28;19913;-84
2021/08/12 04:42:04;;;;;;;;;;;17.20;95.80;;;;;;5060625;28;19928;-84
2021/08/12 04:44:30;;;;;;;;;;;17.20;96.10;;;;;;5061922;28;19932;-83
2021/08/12 04:46:57;;;;;;;;;;;17.20;96.40;;;;;;5062847;28;19916;-84
2021/08/12 04:49:30;;;;;;;;;;;17.20;96.70;;;;;;5060922;28;19917;-84
2021/08/12 04:51:56;;;;;;;;;;;17.20;97.00;;;;;;5061798;28;19913;-84
2021/08/12 04:54:21;;;;;;;;;;;17.30;97.40;;;;;;5062070;28;20019;-84
2021/08/12 04:56:49;;;;;;;;;;;17.30;97.60;;;;;;5060208;28;19921;-83
2021/08/12 04:59:14;;;;;;;;;;;17.40;97.90;;;;;;5058488;28;19913;-83
2021/08/12 05:01:42;;;;;;;;;;;17.50;98.10;;;;;;5061365;28;19917;-84
2021/08/12 05:04:08;;;;;;;;;;;17.60;98.30;;;;;;5059701;28;19913;-84
2021/08/12 05:06:34;;;;;;;;;;;17.70;98.50;;;;;;5061900;28;19920;-84
2021/08/12 05:08:59;;;;;;;;;;;17.80;98.60;;;;;;5061671;28;19912;-84
2021/08/12 05:11:24;;;;;;;;;;;17.90;98.70;;;;;;5062096;28;19909;-84
2021/08/12 05:13:50;;;;;;;;;;;18.10;98.80;;;;;;5054162;28;19921;-84
2021/08/12 05:16:15;;;;;;;;;;;18.20;98.80;;;;;;5054854;28;19913;-84
2021/08/12 05:18:41;;;;;;;;;;;18.40;98.90;;;;;;5060548;28;19972;-83
2021/08/12 05:21:06;;;;;;;;;;;18.50;98.90;;;;;;5041594;28;19913;-84
2021/08/12 05:23:35;;;;;;;;;;;18.70;98.90;;;;;;5059164;28;20073;-84
2021/08/12 05:26:00;;;;;;;;;;;18.90;98.80;;;;;;5060283;28;19929;-84
2021/08/12 05:28:26;;;;;;;;;;;19.10;98.50;;;;;;5061550;28;20214;-84
2021/08/12 05:31:00;;;;;;;;;;;19.50;98.40;;;;;;5058335;28;19920;-84
2021/08/12 05:33:25;;;;;;;;;;;20.00;98.00;;;;;;5051455;28;19942;-84
2021/08/12 05:35:51;;;;;;;;;;;20.60;96.40;;;;;;5059900;28;20408;-84
2021/08/12 05:38:17;;;;;;;;;;;20.90;95.40;;;;;;5058303;28;20523;-84
2021/08/12 05:40:42;;;;;;;;;;;21.30;94.50;;;;;;5097334;22;19924;-86
2021/08/12 05:43:08;;;;;;;;;;;22.80;92.20;;;;;;5094930;28;19916;-86
2021/08/12 05:45:33;;;;;;;;;;;25.20;84.90;;;;;;5096442;28;20368;-87
2021/08/12 05:47:59;;;;;;;;;;;28.30;70.50;;;;;;5083109;28;20002;-86
2021/08/12 05:50:24;;;;;;;;;;;29.60;62.90;;;;;;5095941;28;19912;-87
2021/08/12 05:52:50;;;;;;;;;;;32.00;57.70;;;;;;5112745;28;19951;-87
2021/08/12 05:55:17;;;;;;;;;;;33.50;54.40;;;;;;5096695;28;19916;-87
2021/08/12 05:57:46;;;;;;;;;;;32.70;53.30;;;;;;5108290;28;20057;-87
2021/08/12 06:00:12;;;;;;;;;;;31.50;54.70;;;;;;5107894;28;19912;-86
2021/08/12 06:02:38;;;;;;;;;;;30.60;55.90;;;;;;5097707;28;19919;-87
2021/08/12 06:05:06;;;;;;;;;;;31.90;56.30;;;;;;5109181;28;19922;-88
2021/08/12 06:07:31;;;;;;;;;;;34.10;54.00;;;;;;5105136;28;20364;-88
2021/08/12 06:09:57;;;;;;;;;;;35.70;50.40;;;;;;5116075;28;19966;-87
2021/08/12 06:12:24;;;;;;;;;;;33.90;51.60;;;;;;5104719;28;19958;-87
2021/08/12 06:14:57;;;;;;;;;;;32.30;53.50;;;;;;5106101;28;19919;-87
2021/08/12 06:17:22;;;;;;;;;;;31.20;55.10;;;;;;5106553;28;19973;-87
2021/08/12 06:19:55;;;;;;;;;;;31.00;55.70;;;;;;5094883;28;19913;-86
2021/08/12 06:22:24;;;;;;;;;;;31.20;56.00;;;;;;5109545;28;19916;-86
2021/08/12 06:24:52;;;;;;;;;;;31.70;55.20;;;;;;5102281;28;19912;-86
2021/08/12 06:27:19;;;;;;;;;;;32.00;54.90;;;;;;5115126;28;20444;-86
2021/08/12 06:29:50;;;;;;;;;;;32.30;54.70;;;;;;5101285;28;19927;-85
2021/08/12 06:32:18;;;;;;;;;;;33.60;54.70;;;;;;5098697;28;19915;-85
2021/08/12 06:34:43;;;;;;;;;;;33.90;53.00;;;;;;5109211;28;20326;-86
2021/08/12 06:37:09;;;;;;;;;;;34.20;52.90;;;;;;5093555;28;19920;-84
2021/08/12 06:39:34;;;;;;;;;;;33.60;53.40;;;;;;5098749;28;20782;-86
2021/08/12 06:42:00;;;;;;;;;;;33.20;53.80;;;;;;5095371;28;19939;-86
2021/08/12 06:44:25;;;;;;;;;;;32.40;54.50;;;;;;5093739;28;20003;-85
2021/08/12 06:46:51;;;;;;;;;;;31.50;55.50;;;;;;5111158;28;20424;-86
2021/08/12 06:49:16;;;;;;;;;;;30.90;56.40;;;;;;5099186;28;19912;-86
2021/08/12 06:51:41;;;;;;;;;;;30.50;57.00;;;;;;5095115;28;19908;-86
2021/08/12 06:54:07;;;;;;;;;;;30.30;57.20;;;;;;5104148;28;20037;-86
2021/08/12 06:56:32;;;;;;;;;;;30.60;57.30;;;;;;5093941;28;19912;-86
2021/08/12 06:58:58;;;;;;;;;;;30.60;57.00;;;;;;5099026;28;20329;-86
2021/08/12 07:01:23;;;;;;;;;;;30.30;57.10;;;;;;5107885;28;20389;-86
2021/08/12 07:03:49;;;;;;;;;;;29.80;57.40;;;;;;5091651;28;19995;-85
2021/08/12 07:06:14;;;;;;;;;;;29.30;58.10;;;;;;5098590;28;19916;-86
2021/08/12 07:08:41;;;;;;;;;;;29.00;58.70;;;;;;5103763;28;20287;-85
2021/08/12 07:11:08;;;;;;;;;;;28.90;58.90;;;;;;5095509;28;19979;-86
2021/08/12 07:13:34;;;;;;;;;;;29.00;58.80;;;;;;5094373;28;20335;-84
2021/08/12 07:16:00;;;;;;;;;;;29.20;58.60;;;;;;5096350;28;19940;-86
2021/08/12 07:18:25;;;;;;;;;;;29.50;58.20;;;;;;5095101;28;20390;-85
2021/08/12 07:20:51;;;;;;;;;;;30.30;57.50;;;;;;5094865;28;19969;-87
2021/08/12 07:23:18;;;;;;;;;;;30.70;57.00;;;;;;5098635;28;20303;-85
2021/08/12 07:25:46;;;;;;;;;;;31.40;56.30;;;;;;5097666;28;22599;-86
2021/08/12 07:28:12;;;;;;;;;;;32.00;55.30;;;;;;5106076;28;19937;-86
2021/08/12 07:30:38;;;;;;;;;;;33.60;54.40;;;;;;5115057;28;19980;-86
2021/08/12 07:33:04;;;;;;;;;;;35.30;52.60;;;;;;5098965;28;19912;-86
2021/08/12 07:35:33;;;;;;;;;;;36.60;51.40;;;;;;5103253;28;19915;-85
2021/08/12 07:38:02;;;;;;;;;;;38.90;49.70;;;;;;5099659;28;19924;-86
2021/08/12 07:40:29;;;;;;;;;;;41.20;47.20;;;;;;5093593;28;20003;-86
2021/08/12 07:43:06;;;;;;;;;;;42.80;45.70;;;;;;5097415;28;19916;-86
2021/08/12 07:45:39;;;;;;;;;;;44.70;44.20;;;;;;5112760;28;19912;-86
2021/08/12 07:48:06;;;;;;;;;;;46.70;42.60;;;;;;5106278;28;19973;-86
2021/08/12 07:50:34;;;;;;;;;;;47.70;41.30;;;;;;5097183;28;19955;-86
2021/08/12 07:53:00;;;;;;;;;;;48.60;40.80;;;;;;5094607;28;19916;-86
2021/08/12 07:55:25;;;;;;;;;;;49.00;40.40;;;;;;5102915;28;19913;-85
2021/08/12 07:57:51;;;;;;;;;;;48.60;40.20;;;;;;5093204;28;20003;-85
2021/08/12 08:00:19;;;;;;;;;;;47.10;41.70;;;;;;5112971;28;20286;-85
2021/08/12 08:02:45;;;;;;;;;;;45.00;42.90;;;;;;5100812;28;20391;-85
2021/08/12 08:05:21;;;;;;;;;;;43.20;44.40;;;;;;5097383;28;20425;-85
2021/08/12 08:07:59;;;;;;;;;;;41.90;45.50;;;;;;5105033;28;19947;-86
2021/08/12 08:10:34;;;;;;;;;;;42.20;45.60;;;;;;5117989;28;19975;-84
2021/08/12 08:13:00;;;;;;;;;;;41.60;45.60;;;;;;5101850;28;19920;-86
2021/08/12 08:15:44;;;;;;;;;;;43.20;44.80;;;;;;5117704;28;20264;-86
2021/08/12 08:21:09;;;;;;;;;;;46.40;42.00;;;;;;5106647;28;19950;-85
2021/08/12 08:23:57;;;;;;;;;;;47.20;40.70;;;;;;5112605;28;19957;-85
2021/08/12 08:26:30;;;;;;;;;;;47.20;40.80;;;;;;5120312;28;19912;-85
2021/08/12 08:28:58;;;;;;;;;;;49.00;40.20;;;;;;5122055;28;19939;-83
2021/08/12 08:31:26;;;;;;;;;;;50.60;39.20;;;;;;5117143;28;20006;-83
2021/08/12 08:33:51;;;;;;;;;;;52.10;38.20;;;;;;5098089;28;19915;-84
2021/08/12 08:36:20;;;;;;;;;;;52.90;37.40;;;;;;5103486;28;19912;-84
2021/08/12 08:38:46;;;;;;;;;;;53.10;37.00;;;;;;5097800;28;19921;-84
2021/08/12 08:41:12;;;;;;;;;;;52.40;37.30;;;;;;5098522;28;19916;-83
2021/08/12 08:43:38;;;;;;;;;;;51.90;37.70;;;;;;5099970;28;20003;-84
2021/08/12 08:46:06;;;;;;;;;;;50.80;38.40;;;;;;5103199;28;19919;-85
2021/08/12 08:48:33;;;;;;;;;;;49.70;38.90;;;;;;5102167;28;19991;-85
2021/08/12 08:50:59;;;;;;;;;;;48.50;39.70;;;;;;5096259;28;19987;-83
2021/08/12 08:53:24;;;;;;;;;;;48.00;40.10;;;;;;5096603;28;19950;-84
2021/08/12 08:55:50;;;;;;;;;;;47.90;40.30;;;;;;5101518;28;20481;-83
2021/08/12 08:58:18;;;;;;;;;;;47.00;40.20;;;;;;5120736;27;19916;-85
2021/08/12 09:00:43;;;;;;;;;;;45.70;40.90;;;;;;5103204;28;20389;-86
2021/08/12 09:03:08;;;;;;;;;;;45.60;41.10;;;;;;5108703;28;19991;-86
2021/08/12 09:05:34;;;;;;;;;;;46.00;40.40;;;;;;5123474;27;20493;-85
2021/08/12 09:08:00;;;;;;;;;;;45.90;40.30;;;;;;5130084;27;19919;-85
2021/08/12 09:10:25;;;;;;;;;;;46.00;40.70;;;;;;5127089;27;19978;-85
2021/08/12 09:12:53;;;;;;;;;;;45.30;40.50;;;;;;5123317;27;19919;-85
2021/08/12 09:15:23;;;;;;;;;;;44.70;40.50;;;;;;5104804;28;19912;-85
2021/08/12 09:17:49;;;;;;;;;;;44.00;40.70;;;;;;5113857;28;19912;-85
2021/08/12 09:20:16;;;;;;;;;;;43.30;41.10;;;;;;5102731;28;19985;-85
2021/08/12 09:22:50;;;;;;;;;;;42.70;41.50;;;;;;5101728;28;19912;-84
2021/08/12 09:25:29;;;;;;;;;;;42.10;41.70;;;;;;5114522;27;19924;-84
2021/08/12 09:28:14;;;;;;;;;;;41.50;42.00;;;;;;5123047;28;19912;-84
2021/08/12 09:30:40;;;;;;;;;;;41.10;42.10;;;;;;5117710;28;19916;-84
2021/08/12 09:33:06;;;;;;;;;;;40.80;42.00;;;;;;5102201;28;19988;-84
2021/08/12 09:35:31;;;;;;;;;;;40.30;42.00;;;;;;5100705;28;19955;-83
2021/08/12 09:38:10;;;;;;;;;;;39.80;42.40;;;;;;5116944;28;19916;-84
2021/08/12 09:40:37;;;;;;;;;;;39.40;42.60;;;;;;5103351;28;19916;-83
2021/08/12 09:43:04;;;;;;;;;;;39.00;42.90;;;;;;5109263;28;20276;-83
2021/08/12 09:45:30;;;;;;;;;;;38.70;42.70;;;;;;5118838;28;19908;-83
2021/08/12 09:47:56;;;;;;;;;;;38.50;42.80;;;;;;5109673;28;19941;-83
2021/08/12 09:50:31;;;;;;;;;;;38.60;42.50;;;;;;5120191;28;19911;-85
2021/08/12 09:52:57;;;;;;;;;;;38.80;42.40;;;;;;5101342;28;20378;-85
2021/08/12 09:55:23;;;;;;;;;;;39.40;41.80;;;;;;5100004;28;19959;-85
2021/08/12 09:57:50;;;;;;;;;;;38.90;41.40;;;;;;5116316;28;19912;-84
2021/08/12 10:00:25;;;;;;;;;;;38.40;41.80;;;;;;5110311;28;19912;-85
2021/08/12 10:02:50;;;;;;;;;;;38.00;42.10;;;;;;5102041;28;19919;-85
2021/08/12 10:05:16;;;;;;;;;;;37.90;42.30;;;;;;5099225;28;19912;-85
2021/08/12 10:07:43;;;;;;;;;;;38.30;42.00;;;;;;5101833;28;19918;-85
2021/08/12 10:10:10;;;;;;;;;;;38.20;41.70;;;;;;5107423;28;19999;-84
2021/08/12 10:12:35;;;;;;;;;;;38.30;41.60;;;;;;5112834;28;19980;-84
2021/08/12 10:15:01;;;;;;;;;;;39.90;40.70;;;;;;5109412;28;19908;-84
2021/08/12 10:17:27;;;;;;;;;;;40.70;39.70;;;;;;5115413;28;19995;-85
2021/08/12 10:19:52;;;;;;;;;;;41.00;39.30;;;;;;5098948;28;19912;-85
2021/08/12 10:22:18;;;;;;;;;;;40.90;39.20;;;;;;5112220;28;19912;-85
2021/08/12 10:24:44;;;;;;;;;;;41.00;39.20;;;;;;5097731;28;19974;-86
2021/08/12 10:27:10;;;;;;;;;;;41.00;39.10;;;;;;5097369;28;19957;-85
2021/08/12 10:29:36;;;;;;;;;;;40.80;39.20;;;;;;5101985;28;19920;-86
2021/08/12 10:32:02;;;;;;;;;;;40.60;38.80;;;;;;5103794;28;19919;-85
2021/08/12 10:34:28;;;;;;;;;;;40.30;38.70;;;;;;5104222;28;19919;-85
2021/08/12 10:36:54;;;;;;;;;;;39.60;39.20;;;;;;5104937;28;19912;-85
2021/08/12 10:39:21;;;;;;;;;;;38.90;39.80;;;;;;5102291;28;19958;-86
2021/08/12 10:41:47;;;;;;;;;;;38.20;40.00;;;;;;5099370;28;20291;-86
2021/08/12 10:44:14;;;;;;;;;;;37.40;40.30;;;;;;5105889;28;19941;-86
2021/08/12 10:46:41;;;;;;;;;;;36.80;40.80;;;;;;5094549;28;19950;-86
2021/08/12 10:49:22;;;;;;;;;;;36.20;41.30;;;;;;5093863;28;19912;-86
2021/08/12 10:52:03;;;;;;;;;;;35.70;41.60;;;;;;5100852;28;19916;-86
2021/08/12 10:54:29;;;;;;;;;;;35.10;42.00;;;;;;5096561;28;20324;-86
2021/08/12 10:57:14;;;;;;;;;;;34.70;42.30;;;;;;5095076;28;19908;-86
2021/08/12 10:59:40;;;;;;;;;;;34.20;42.60;;;;;;5095274;28;20283;-86
2021/08/12 11:02:26;;;;;;;;;;;33.80;42.80;;;;;;5100970;28;19934;-83
2021/08/12 11:04:52;;;;;;;;;;;33.40;42.90;;;;;;5080243;28;20423;-84
2021/08/12 11:07:36;;;;;;;;;;;33.00;43.10;;;;;;5112830;28;19918;-85
2021/08/12 11:10:02;;;;;;;;;;;32.90;43.30;;;;;;5105198;28;19944;-84
2021/08/12 11:12:46;;;;;;;;;;;32.80;43.30;;;;;;5097644;28;20333;-84
2021/08/12 11:15:12;;;;;;;;;;;32.80;43.40;;;;;;5099319;28;19916;-85
2021/08/12 11:17:56;;;;;;;;;;;32.90;43.20;;;;;;5106301;28;20332;-85
2021/08/12 11:20:32;;;;;;;;;;;33.10;43.00;;;;;;5109703;28;20011;-85
2021/08/12 11:23:18;;;;;;;;;;;33.50;42.80;;;;;;5105533;28;20067;-85
2021/08/12 11:25:53;;;;;;;;;;;34.10;42.40;;;;;;5098153;28;19915;-85
2021/08/12 11:28:37;;;;;;;;;;;34.90;42.30;;;;;;5103524;28;19912;-85
2021/08/12 11:31:02;;;;;;;;;;;35.80;41.20;;;;;;5095417;28;19919;-85
2021/08/12 11:33:29;;;;;;;;;;;37.10;40.40;;;;;;5106509;28;19915;-86
2021/08/12 11:36:06;;;;;;;;;;;37.90;39.80;;;;;;5101390;28;19922;-85
2021/08/12 11:38:32;;;;;;;;;;;38.90;40.00;;;;;;5108869;28;20382;-85
2021/08/12 11:40:58;;;;;;;;;;;39.80;38.60;;;;;;5103409;22;19933;-84
2021/08/12 11:43:23;;;;;;;;;;;40.70;38.00;;;;;;5063119;28;19913;-84
2021/08/12 11:45:50;;;;;;;;;;;41.50;37.40;;;;;;5071813;28;19908;-84
2021/08/12 11:48:16;;;;;;;;;;;42.20;36.90;;;;;;5066717;28;19912;-84
2021/08/12 11:50:42;;;;;;;;;;;42.40;36.10;;;;;;5072676;28;19912;-84
2021/08/12 11:53:07;;;;;;;;;;;42.20;35.70;;;;;;5055116;28;20548;-84
2021/08/12 11:55:35;;;;;;;;;;;41.80;35.70;;;;;;5051429;28;19959;-84
2021/08/12 11:58:01;;;;;;;;;;;41.10;35.30;;;;;;5048467;28;20361;-84
2021/08/12 12:00:31;;;;;;;;;;;40.60;35.90;;;;;;5055167;28;19956;-84
2021/08/12 12:02:57;;;;;;;;;;;40.40;36.30;;;;;;5035585;28;20400;-84
2021/08/12 12:05:26;;;;;;;;;;;40.80;36.30;;;;;;5055169;28;19913;-84
2021/08/12 12:07:53;;;;;;;;;;;40.80;36.20;;;;;;5035238;28;19909;-84
2021/08/12 12:10:37;;;;;;;;;;;41.00;35.60;;;;;;5038932;28;19919;-84
2021/08/12 12:13:13;;;;;;;;;;;40.80;35.40;;;;;;5054747;28;19963;-83
2021/08/12 12:15:42;;;;;;;;;;;41.00;35.70;;;;;;5053006;28;20431;-84
2021/08/12 12:18:07;;;;;;;;;;;41.60;35.20;;;;;;5053867;28;19979;-84
2021/08/12 12:20:36;;;;;;;;;;;41.80;35.10;;;;;;5054352;28;19909;-84
2021/08/12 12:23:03;;;;;;;;;;;41.90;35.00;;;;;;5046989;28;19963;-84
2021/08/12 12:25:29;;;;;;;;;;;42.10;34.90;;;;;;5051018;28;19919;-85
2021/08/12 12:27:56;;;;;;;;;;;42.60;34.60;;;;;;5051341;28;19958;-83
2021/08/12 12:30:21;;;;;;;;;;;42.70;34.20;;;;;;5056104;28;19909;-84
2021/08/12 12:32:56;;;;;;;;;;;42.10;34.40;;;;;;5052863;28;20300;-83
2021/08/12 12:35:22;;;;;;;;;;;41.90;34.80;;;;;;5055671;28;20011;-83
2021/08/12 12:37:47;;;;;;;;;;;41.40;34.90;;;;;;5056713;28;20359;-83
2021/08/12 12:40:17;;;;;;;;;;;40.50;35.40;;;;;;5057273;28;19923;-83
2021/08/12 12:42:45;;;;;;;;;;;39.70;36.10;;;;;;5048790;28;19925;-83
2021/08/12 12:45:12;;;;;;;;;;;38.90;36.60;;;;;;5052042;28;19913;-83
2021/08/12 12:47:38;;;;;;;;;;;38.50;37.00;;;;;;5061167;28;19913;-83
2021/08/12 12:50:04;;;;;;;;;;;38.70;36.80;;;;;;5063518;28;19996;-83
2021/08/12 12:52:30;;;;;;;;;;;39.10;36.60;;;;;;5061271;28;19921;-83
2021/08/12 12:54:58;;;;;;;;;;;39.40;36.20;;;;;;5063471;28;19970;-83
2021/08/12 12:57:33;;;;;;;;;;;39.70;36.00;;;;;;5060402;28;19913;-83
2021/08/12 12:59:59;;;;;;;;;;;39.60;35.70;;;;;;5048042;28;20380;-83
2021/08/12 13:02:24;;;;;;;;;;;39.30;35.90;;;;;;5047832;28;19923;-83
2021/08/12 13:04:57;;;;;;;;;;;39.10;36.20;;;;;;5053888;28;19913;-83
2021/08/12 13:07:22;;;;;;;;;;;38.80;36.30;;;;;;5054654;28;19916;-83
2021/08/12 13:09:48;;;;;;;;;;;39.10;36.50;;;;;;5053848;28;19920;-83
2021/08/12 13:12:26;;;;;;;;;;;39.40;36.20;;;;;;5056064;28;19917;-83
2021/08/12 13:15:06;;;;;;;;;;;39.60;36.00;;;;;;5054113;28;19967;-83
2021/08/12 13:17:32;;;;;;;;;;;39.70;35.90;;;;;;5051525;28;20384;-84
2021/08/12 13:20:11;;;;;;;;;;;39.60;35.80;;;;;;5052024;28;19920;-84
2021/08/12 13:22:40;;;;;;;;;;;39.60;35.90;;;;;;5051630;28;20042;-83
2021/08/12 13:25:10;;;;;;;;;;;39.10;36.30;;;;;;5052277;28;19913;-82
2021/08/12 13:27:43;;;;;;;;;;;38.80;36.50;;;;;;5053808;28;20385;-82
2021/08/12 13:30:10;;;;;;;;;;;38.50;36.60;;;;;;5054543;28;19913;-82
2021/08/12 13:32:36;;;;;;;;;;;38.30;36.90;;;;;;5053699;28;19939;-83
2021/08/12 13:35:02;;;;;;;;;;;37.60;37.20;;;;;;5050674;28;20278;-82
2021/08/12 13:37:27;;;;;;;;;;;36.70;37.40;;;;;;5050568;28;20003;-82
2021/08/12 13:39:53;;;;;;;;;;;36.10;37.90;;;;;;5056522;28;19909;-82
2021/08/12 13:42:18;;;;;;;;;;;35.60;38.30;;;;;;5055123;28;20411;-82
2021/08/12 13:44:43;;;;;;;;;;;35.30;38.50;;;;;;5055349;28;19978;-82
2021/08/12 13:47:09;;;;;;;;;;;35.30;38.70;;;;;;5056687;28;19912;-82
2021/08/12 13:49:35;;;;;;;;;;;35.50;38.40;;;;;;5054798;28;19994;-83
2021/08/12 13:52:02;;;;;;;;;;;36.00;38.10;;;;;;5050319;28;19923;-82
2021/08/12 13:54:27;;;;;;;;;;;36.60;37.70;;;;;;5052802;28;19913;-82
2021/08/12 13:56:53;;;;;;;;;;;37.00;37.30;;;;;;5053432;28;19944;-82
2021/08/12 13:59:19;;;;;;;;;;;37.20;37.00;;;;;;5052232;28;19909;-82
2021/08/12 14:01:45;;;;;;;;;;;37.30;37.00;;;;;;5053695;28;19917;-82
2021/08/12 14:04:11;;;;;;;;;;;37.40;37.00;;;;;;5052428;28;19917;-83
2021/08/12 14:06:37;;;;;;;;;;;37.50;37.20;;;;;;5051011;28;19923;-82
2021/08/12 14:09:06;;;;;;;;;;;37.60;37.10;;;;;;5045664;28;20614;-82
2021/08/12 14:11:35;;;;;;;;;;;37.60;37.10;;;;;;5053636;28;20012;-82
2021/08/12 14:14:02;;;;;;;;;;;37.70;37.20;;;;;;5052354;28;20136;-83
2021/08/12 14:16:27;;;;;;;;;;;37.60;37.20;;;;;;5052852;28;19908;-82
2021/08/12 14:18:53;;;;;;;;;;;37.60;37.50;;;;;;5053062;28;19920;-82
2021/08/12 14:21:19;;;;;;;;;;;37.50;36.80;;;;;;5053399;28;19916;-82
2021/08/12 14:23:45;;;;;;;;;;;37.40;37.10;;;;;;5052158;28;19913;-82
2021/08/12 14:26:10;;;;;;;;;;;37.30;37.30;;;;;;5049332;28;19917;-83
2021/08/12 14:28:36;;;;;;;;;;;37.10;37.40;;;;;;5052202;28;19923;-83